createdAt,value
2022-07-30T00:00:54.070Z,10.98
2022-07-30T00:03:21.771Z,11.00
2022-07-30T00:05:49.789Z,11.95
2022-07-30T00:08:17.357Z,13.27
2022-07-30T00:10:44.954Z,10.63
2022-07-30T00:13:14.131Z,9.30
2022-07-30T00:15:42.181Z,11.45
2022-07-30T00:18:10.047Z,13.32
2022-07-30T00:20:43.602Z,9.05
2022-07-30T00:23:12.137Z,10.18
2022-07-30T00:25:39.933Z,17.27
2022-07-30T00:28:07.607Z,11.02
2022-07-30T00:30:35.348Z,11.18
2022-07-30T00:33:03.006Z,10.18
2022-07-30T00:35:30.624Z,14.70
2022-07-30T00:37:58.239Z,12.88
2022-07-30T00:40:25.942Z,13.70
2022-07-30T00:42:53.522Z,10.55
2022-07-30T00:45:21.093Z,11.45
2022-07-30T00:47:48.882Z,12.77
2022-07-30T00:50:16.683Z,11.25
2022-07-30T00:52:44.633Z,12.68
2022-07-30T00:55:14.136Z,9.93
2022-07-30T00:57:42.818Z,10.10
2022-07-30T01:00:14.090Z,10.82
2022-07-30T01:02:42.675Z,10.55
2022-07-30T01:05:10.538Z,11.23
2022-07-30T01:07:38.172Z,9.77
2022-07-30T01:10:07.944Z,11.88
2022-07-30T01:12:37.209Z,9.70
2022-07-30T01:15:07.774Z,11.07
2022-07-30T01:17:37.054Z,10.53
2022-07-30T01:20:13.271Z,9.25
2022-07-30T01:23:08.927Z,9.95
2022-07-30T01:25:51.938Z,9.73
2022-07-30T01:28:27.053Z,9.05
2022-07-30T01:30:56.474Z,9.38
2022-07-30T01:33:26.506Z,9.48
2022-07-30T01:35:55.707Z,9.40
2022-07-30T01:38:25.618Z,7.18
2022-07-30T01:40:55.957Z,7.57
2022-07-30T01:43:25.782Z,8.73
2022-07-30T01:45:56.212Z,8.20
2022-07-30T01:48:27.259Z,7.32
2022-07-30T01:50:58.286Z,7.05
2022-07-30T01:53:28.405Z,8.23
2022-07-30T01:55:58.739Z,7.45
2022-07-30T01:58:31.644Z,7.93
2022-07-30T02:01:07.420Z,8.02
2022-07-30T02:03:36.019Z,8.55
2022-07-30T02:06:26.474Z,7.35
2022-07-30T02:09:02.226Z,7.18
2022-07-30T02:12:05.477Z,7.13
2022-07-30T02:14:50.819Z,6.30
2022-07-30T02:17:39.768Z,7.70
2022-07-30T02:20:13.639Z,18.95
2022-07-30T02:22:46.616Z,6.57
2022-07-30T02:25:19.999Z,5.50
2022-07-30T02:27:56.001Z,5.50
2022-07-30T02:30:27.839Z,7.88
2022-07-30T02:33:01.304Z,6.07
2022-07-30T02:35:31.634Z,10.48
2022-07-30T02:38:02.493Z,8.45
2022-07-30T02:40:32.153Z,6.35
2022-07-30T02:43:01.605Z,5.20
2022-07-30T02:45:31.035Z,9.07
2022-07-30T02:48:03.319Z,6.22
2022-07-30T02:50:32.132Z,6.35
2022-07-30T02:53:01.946Z,6.45
2022-07-30T02:55:33.855Z,8.20
2022-07-30T02:58:04.017Z,5.53
2022-07-30T03:00:34.358Z,9.20
2022-07-30T03:03:05.712Z,5.78
2022-07-30T03:05:34.667Z,7.75
2022-07-30T03:08:03.949Z,6.22
2022-07-30T03:10:33.840Z,4.53
2022-07-30T03:13:02.482Z,5.07
2022-07-30T03:15:32.933Z,3.75
2022-07-30T03:18:11.817Z,7.30
2022-07-30T03:20:40.845Z,4.97
2022-07-30T03:23:11.532Z,5.40
2022-07-30T03:25:42.369Z,5.97
2022-07-30T03:30:38.751Z,4.93
2022-07-30T03:33:07.083Z,4.70
2022-07-30T03:35:35.390Z,7.10
2022-07-30T03:38:03.418Z,4.47
2022-07-30T03:40:32.351Z,4.60
2022-07-30T03:43:00.384Z,5.95
2022-07-30T03:45:28.453Z,5.60
2022-07-30T03:48:05.150Z,5.20
2022-07-30T03:53:05.881Z,6.07
2022-07-30T03:55:38.296Z,6.55
2022-07-30T03:58:24.598Z,8.82
2022-07-30T04:00:52.805Z,6.25
2022-07-30T04:03:27.878Z,6.45
2022-07-30T04:06:00.339Z,8.77
2022-07-30T04:08:29.518Z,6.75
2022-07-30T04:10:57.435Z,9.30
2022-07-30T04:13:43.682Z,6.55
2022-07-30T04:16:40.235Z,6.85
2022-07-30T04:19:09.581Z,7.10
2022-07-30T04:21:39.474Z,7.55
2022-07-30T04:24:08.074Z,8.25
2022-07-30T04:26:37.674Z,7.68
2022-07-30T04:29:07.850Z,7.97
2022-07-30T04:31:38.251Z,7.25
2022-07-30T04:34:28.789Z,11.73
2022-07-30T04:36:57.590Z,9.07
2022-07-30T04:39:26.062Z,6.80
2022-07-30T04:41:53.785Z,8.73
2022-07-30T04:44:36.036Z,7.95
2022-07-30T04:47:26.977Z,11.03
2022-07-30T04:50:22.820Z,8.98
2022-07-30T04:52:52.377Z,6.25
2022-07-30T04:55:27.440Z,7.97
2022-07-30T04:57:55.904Z,5.85
2022-07-30T05:00:23.583Z,9.43
2022-07-30T05:02:53.465Z,7.07
2022-07-30T05:05:24.912Z,10.05
2022-07-30T05:07:54.889Z,11.65
2022-07-30T05:10:22.650Z,8.07
2022-07-30T05:12:50.537Z,7.57
2022-07-30T05:15:20.031Z,8.10
2022-07-30T05:17:48.902Z,7.10
2022-07-30T05:20:16.667Z,8.70
2022-07-30T05:23:14.112Z,8.30
2022-07-30T05:25:45.507Z,7.60
2022-07-30T05:28:18.994Z,7.15
2022-07-30T05:30:49.243Z,8.25
2022-07-30T05:33:19.604Z,7.90
2022-07-30T05:35:50.332Z,6.40
2022-07-30T05:38:19.275Z,8.52
2022-07-30T05:41:30.770Z,8.45
2022-07-30T05:44:10.310Z,7.93
2022-07-30T05:46:38.624Z,7.22
2022-07-30T05:49:06.698Z,7.47
2022-07-30T05:51:34.616Z,7.72
2022-07-30T05:54:02.413Z,6.75
2022-07-30T05:56:58.928Z,8.50
2022-07-30T05:59:32.618Z,5.82
2022-07-30T06:02:20.614Z,7.63
2022-07-30T06:05:11.430Z,7.25
2022-07-30T06:07:39.106Z,7.07
2022-07-30T06:10:08.718Z,9.20
2022-07-30T06:12:37.725Z,7.82
2022-07-30T06:15:06.221Z,5.90
2022-07-30T06:17:51.010Z,7.03
2022-07-30T06:20:42.202Z,8.73
2022-07-30T06:23:12.844Z,7.45
2022-07-30T06:26:16.014Z,10.55
2022-07-30T06:28:44.784Z,7.50
2022-07-30T06:31:18.424Z,7.40
2022-07-30T06:33:46.993Z,8.48
2022-07-30T06:36:15.561Z,8.07
2022-07-30T06:38:53.475Z,8.43
2022-07-30T06:41:32.573Z,8.05
2022-07-30T06:44:00.388Z,7.28
2022-07-30T06:47:08.228Z,9.48
2022-07-30T06:49:38.529Z,8.68
2022-07-30T06:52:09.299Z,9.13
2022-07-30T06:54:37.415Z,8.13
2022-07-30T06:57:16.267Z,7.85
2022-07-30T06:59:56.279Z,8.65
2022-07-30T07:02:33.937Z,7.95
2022-07-30T07:05:25.299Z,10.43
2022-07-30T07:07:59.259Z,8.60
2022-07-30T07:10:32.134Z,7.90
2022-07-30T07:13:16.222Z,9.05
2022-07-30T07:15:44.914Z,8.80
2022-07-30T07:18:17.674Z,7.30
2022-07-30T07:20:52.394Z,8.38
2022-07-30T07:23:20.152Z,9.05
2022-07-30T07:25:53.059Z,7.53
2022-07-30T07:28:20.855Z,6.85
2022-07-30T07:30:50.254Z,6.03
2022-07-30T07:33:18.790Z,6.10
2022-07-30T07:35:49.774Z,6.32
2022-07-30T07:38:26.978Z,7.28
2022-07-30T07:40:56.075Z,8.75
2022-07-30T07:43:25.280Z,10.73
2022-07-30T07:45:55.685Z,8.32
2022-07-30T07:48:23.598Z,9.98
2022-07-30T07:51:17.851Z,6.00
2022-07-30T07:54:21.132Z,6.88
2022-07-30T07:57:02.432Z,6.25
2022-07-30T07:59:40.189Z,6.28
2022-07-30T08:02:17.294Z,6.70
2022-07-30T08:04:59.833Z,5.93
2022-07-30T08:07:49.198Z,5.70
2022-07-30T08:10:35.987Z,7.45
2022-07-30T08:13:49.350Z,5.65
2022-07-30T08:16:30.284Z,6.90
2022-07-30T08:19:30.346Z,6.88
2022-07-30T08:22:12.966Z,5.65
2022-07-30T08:24:41.038Z,6.72
2022-07-30T08:27:09.185Z,4.60
2022-07-30T08:29:37.155Z,5.47
2022-07-30T08:32:05.318Z,4.65
2022-07-30T08:34:36.179Z,4.60
2022-07-30T08:37:04.663Z,6.55
2022-07-30T08:39:32.461Z,4.03
2022-07-30T08:42:02.616Z,6.45
2022-07-30T08:44:32.552Z,3.90
2022-07-30T08:47:03.476Z,4.87
2022-07-30T08:49:52.735Z,4.28
2022-07-30T08:52:24.934Z,5.15
2022-07-30T08:55:01.074Z,6.25
2022-07-30T08:57:30.778Z,4.32
2022-07-30T09:00:01.578Z,5.30
2022-07-30T09:02:32.745Z,4.25
2022-07-30T09:05:06.154Z,8.00
2022-07-30T09:07:45.010Z,5.18
2022-07-30T09:13:25.238Z,3.05
2022-07-30T09:15:57.377Z,3.92
2022-07-30T09:18:40.297Z,5.13
2022-07-30T09:21:16.663Z,4.82
2022-07-30T09:24:03.062Z,4.30
2022-07-30T09:27:21.437Z,5.20
2022-07-30T09:30:21.476Z,4.25
2022-07-30T09:33:20.840Z,4.32
2022-07-30T09:36:42.203Z,5.70
2022-07-30T09:39:29.725Z,4.90
2022-07-30T09:42:28.770Z,5.32
2022-07-30T09:45:34.645Z,4.07
2022-07-30T09:48:22.641Z,3.95
2022-07-30T09:50:57.479Z,2.53
2022-07-30T09:53:27.805Z,4.70
2022-07-30T09:55:59.787Z,3.47
2022-07-30T09:58:49.757Z,2.53
2022-07-30T10:01:20.645Z,2.13
2022-07-30T10:03:48.756Z,1.65
2022-07-30T10:06:38.120Z,1.40
2022-07-30T10:09:37.481Z,2.40
2022-07-30T10:12:11.914Z,1.50
2022-07-30T10:14:46.604Z,0.60
2022-07-30T10:17:18.104Z,1.42
2022-07-30T10:20:16.903Z,1.55
2022-07-30T10:23:09.113Z,1.92
2022-07-30T10:25:49.363Z,0.55
2022-07-30T10:28:53.429Z,1.70
2022-07-30T10:31:48.518Z,4.32
2022-07-30T10:34:12.334Z,0.77
2022-07-30T10:37:04.720Z,1.35
2022-07-30T10:40:10.460Z,1.48
2022-07-30T10:42:51.786Z,0.63
2022-07-30T10:48:48.831Z,1.75
2022-07-30T10:51:25.420Z,1.58
2022-07-30T10:54:02.186Z,1.48
2022-07-30T10:56:30.168Z,1.83
2022-07-30T10:59:11.327Z,1.10
2022-07-30T11:01:51.810Z,1.27
2022-07-30T11:04:25.525Z,1.70
2022-07-30T11:07:23.587Z,2.08
2022-07-30T11:10:05.188Z,1.70
2022-07-30T11:12:44.015Z,1.80
2022-07-30T11:15:18.953Z,2.35
2022-07-30T11:18:12.161Z,1.52
2022-07-30T11:20:43.243Z,0.77
2022-07-30T11:23:20.096Z,2.30
2022-07-30T11:28:49.394Z,2.13
2022-07-30T11:31:54.798Z,1.70
2022-07-30T11:34:30.809Z,1.98
2022-07-30T11:37:21.663Z,2.58
2022-07-30T11:39:57.152Z,2.38
2022-07-30T11:42:30.521Z,2.88
2022-07-30T11:45:16.894Z,3.17
2022-07-30T11:47:50.002Z,3.80
2022-07-30T11:50:23.758Z,2.80
2022-07-30T11:53:00.392Z,5.55
2022-07-30T11:55:30.854Z,3.38
2022-07-30T11:58:00.141Z,8.23
2022-07-30T12:00:42.604Z,1.85
2022-07-30T12:03:15.762Z,2.90
2022-07-30T12:05:44.256Z,3.63
2022-07-30T12:08:31.607Z,2.97
2022-07-30T12:11:01.682Z,2.85
2022-07-30T12:13:44.940Z,2.78
2022-07-30T12:16:16.848Z,2.78
2022-07-30T12:18:46.005Z,4.05
2022-07-30T12:21:17.993Z,2.05
2022-07-30T12:23:55.066Z,3.35
2022-07-30T12:26:29.059Z,2.25
2022-07-30T12:28:59.515Z,1.63
2022-07-30T12:31:28.010Z,2.00
2022-07-30T12:33:59.003Z,2.35
2022-07-30T12:36:32.276Z,2.85
2022-07-30T12:39:03.655Z,3.95
2022-07-30T12:41:46.594Z,3.70
2022-07-30T12:44:36.351Z,5.00
2022-07-30T12:47:06.377Z,3.80
2022-07-30T12:49:37.753Z,2.83
2022-07-30T12:52:31.990Z,4.70
2022-07-30T12:55:07.137Z,4.32
2022-07-30T12:58:07.703Z,3.47
2022-07-30T13:00:45.085Z,2.97
2022-07-30T13:03:24.105Z,4.25
2022-07-30T13:05:55.360Z,4.78
2022-07-30T13:08:46.350Z,5.57
2022-07-30T13:11:14.327Z,2.67
2022-07-30T13:13:42.399Z,3.78
2022-07-30T13:16:10.464Z,3.17
2022-07-30T13:18:41.046Z,3.60
2022-07-30T13:21:09.475Z,3.53
2022-07-30T13:23:41.651Z,3.03
2022-07-30T13:26:10.752Z,4.50
2022-07-30T13:28:38.641Z,3.40
2022-07-30T13:31:07.740Z,11.30
2022-07-30T13:33:36.459Z,3.92
2022-07-30T13:36:04.913Z,3.85
2022-07-30T13:38:33.557Z,4.03
2022-07-30T13:41:02.906Z,4.80
2022-07-30T13:46:03.825Z,4.30
2022-07-30T13:48:33.265Z,4.35
2022-07-30T13:51:01.140Z,5.72
2022-07-30T13:53:29.657Z,6.53
2022-07-30T13:55:59.564Z,4.45
2022-07-30T13:58:27.859Z,4.05
2022-07-30T14:00:55.889Z,4.40
2022-07-30T14:03:23.679Z,5.75
2022-07-30T14:05:51.782Z,6.45
2022-07-30T14:08:19.540Z,4.97
2022-07-30T14:10:47.451Z,5.43
2022-07-30T14:13:20.808Z,4.75
2022-07-30T14:15:48.817Z,3.30
2022-07-30T14:18:16.987Z,4.80
2022-07-30T14:20:48.433Z,4.20
2022-07-30T14:23:16.908Z,7.93
2022-07-30T14:25:44.745Z,5.60
2022-07-30T14:28:12.708Z,4.10
2022-07-30T14:30:40.353Z,4.20
2022-07-30T14:33:08.324Z,5.45
2022-07-30T14:35:36.038Z,4.55
2022-07-30T14:38:03.812Z,3.83
2022-07-30T14:40:31.447Z,4.00
2022-07-30T14:42:59.562Z,5.53
2022-07-30T14:45:27.254Z,4.97
2022-07-30T14:47:56.538Z,5.60
2022-07-30T14:50:24.207Z,4.40
2022-07-30T14:52:52.117Z,4.80
2022-07-30T14:55:19.764Z,6.20
2022-07-30T14:57:47.945Z,4.60
2022-07-30T15:00:16.047Z,4.10
2022-07-30T15:02:43.682Z,4.50
2022-07-30T15:05:11.313Z,4.70
2022-07-30T15:07:47.750Z,4.20
2022-07-30T15:10:19.507Z,4.82
2022-07-30T15:12:47.562Z,7.05
2022-07-30T15:15:15.948Z,4.57
2022-07-30T15:17:43.772Z,4.60
2022-07-30T15:20:12.318Z,4.38
2022-07-30T15:22:40.167Z,4.65
2022-07-30T15:25:08.770Z,4.68
2022-07-30T15:27:36.974Z,4.07
2022-07-30T15:30:05.785Z,4.45
2022-07-30T15:32:33.629Z,7.97
2022-07-30T15:35:01.411Z,6.47
2022-07-30T15:37:29.136Z,4.78
2022-07-30T16:12:11.105Z,5.63
2022-07-30T16:14:38.903Z,5.55
2022-07-30T16:17:11.813Z,6.97
2022-07-30T16:19:45.008Z,5.97
2022-07-30T16:22:15.110Z,6.10
2022-07-30T16:24:50.053Z,7.43
2022-07-30T16:27:17.779Z,5.20
2022-07-30T16:29:45.350Z,6.93
2022-07-30T16:32:12.909Z,7.68
2022-07-30T16:34:40.471Z,5.53
2022-07-30T16:37:07.986Z,7.43
2022-07-30T16:39:35.691Z,6.40
2022-07-30T16:42:04.674Z,5.95
2022-07-30T16:44:34.115Z,7.25
2022-07-30T16:47:01.686Z,7.00
2022-07-30T16:49:30.357Z,6.53
2022-07-30T16:51:58.029Z,9.32
2022-07-30T16:54:25.784Z,5.88
2022-07-30T16:56:53.379Z,7.90
2022-07-30T16:59:21.542Z,5.35
2022-07-30T17:01:49.592Z,7.45
2022-07-30T17:04:17.753Z,7.13
2022-07-30T17:06:45.350Z,6.45
2022-07-30T17:09:16.056Z,6.93
2022-07-30T17:11:51.857Z,6.28
2022-07-30T17:14:22.240Z,6.85
2022-07-30T17:16:50.205Z,6.82
2022-07-30T17:19:17.845Z,5.93
2022-07-30T17:21:45.448Z,5.82
2022-07-30T17:24:13.759Z,6.57
2022-07-30T17:26:43.444Z,7.25
2022-07-30T17:29:14.916Z,7.22
2022-07-30T17:31:46.165Z,7.13
2022-07-30T17:34:15.960Z,7.07
2022-07-30T17:36:50.157Z,6.30
2022-07-30T17:40:26.985Z,6.72
2022-07-30T17:42:11.075Z,7.57
2022-07-30T17:44:43.018Z,6.72
2022-07-30T17:47:16.368Z,7.95
2022-07-30T17:49:44.345Z,7.22
2022-07-30T17:52:12.085Z,6.55
2022-07-30T17:54:39.879Z,6.43
2022-07-30T17:57:07.771Z,6.68
2022-07-30T17:59:35.429Z,9.27
2022-07-30T18:02:04.436Z,7.72
2022-07-30T18:04:33.401Z,8.75
2022-07-30T18:07:01.430Z,6.13
2022-07-30T18:09:31.185Z,6.80
2022-07-30T18:12:08.045Z,6.90
2022-07-30T18:14:35.621Z,6.93
2022-07-30T18:17:04.475Z,6.57
2022-07-30T18:19:32.067Z,9.70
2022-07-30T18:22:02.163Z,6.53
2022-07-30T18:24:30.699Z,6.72
2022-07-30T18:26:58.229Z,7.10
2022-07-30T18:29:25.849Z,11.07
2022-07-30T18:31:53.396Z,7.55
2022-07-30T18:34:20.991Z,7.45
2022-07-30T18:36:51.186Z,10.18
2022-07-30T18:39:19.151Z,7.72
2022-07-30T18:41:46.877Z,9.07
2022-07-30T18:44:14.570Z,7.97
2022-07-30T18:46:42.099Z,9.25
2022-07-30T18:49:26.883Z,9.35
2022-07-30T18:51:59.314Z,9.25
2022-07-30T18:54:27.363Z,9.30
2022-07-30T18:56:55.128Z,9.25
2022-07-30T18:59:22.813Z,8.48
2022-07-30T19:01:50.931Z,10.75
2022-07-30T19:04:20.755Z,8.25
2022-07-30T19:06:50.013Z,11.82
2022-07-30T19:09:18.387Z,8.80
2022-07-30T19:11:47.958Z,10.88
2022-07-30T19:14:16.286Z,8.55
2022-07-30T19:16:44.514Z,8.98
2022-07-30T19:19:14.670Z,12.25
2022-07-30T19:21:43.528Z,11.00
2022-07-30T19:24:12.906Z,9.32
2022-07-30T19:26:44.801Z,7.60
2022-07-30T19:29:12.874Z,11.80
2022-07-30T19:31:41.718Z,7.95
2022-07-30T19:34:11.437Z,9.20
2022-07-30T19:36:40.051Z,8.00
2022-07-30T19:39:08.760Z,8.20
2022-07-30T19:41:42.188Z,12.43
2022-07-30T19:44:12.616Z,11.07
2022-07-30T19:46:41.382Z,8.55
2022-07-30T19:49:12.199Z,8.38
2022-07-30T19:52:10.390Z,9.20
2022-07-30T19:54:30.867Z,9.07
2022-07-30T19:57:01.333Z,7.93
2022-07-30T19:59:43.762Z,10.07
2022-07-30T20:02:15.627Z,7.28
2022-07-30T20:04:43.948Z,7.35
2022-07-30T20:07:12.629Z,8.88
2022-07-30T20:09:42.863Z,6.93
2022-07-30T20:12:11.959Z,6.95
2022-07-30T20:14:43.458Z,6.88
2022-07-30T20:17:12.122Z,8.32
2022-07-30T20:19:47.511Z,8.60
2022-07-30T20:22:16.804Z,8.13
2022-07-30T20:24:47.958Z,6.80
2022-07-30T20:27:37.470Z,6.03
2022-07-30T20:30:09.280Z,7.77
2022-07-30T20:32:46.433Z,8.77
2022-07-30T20:35:14.886Z,7.05
2022-07-30T20:37:55.604Z,8.18
2022-07-30T20:40:27.077Z,8.35
2022-07-30T20:42:55.364Z,7.38
2022-07-30T20:45:25.722Z,7.32
2022-07-30T20:48:17.446Z,8.77
2022-07-30T20:50:49.343Z,7.20
2022-07-30T20:55:45.737Z,8.90
2022-07-30T20:58:16.712Z,10.05
2022-07-30T21:00:49.764Z,9.48
2022-07-30T21:03:21.739Z,8.77
2022-07-30T21:05:51.192Z,12.80
2022-07-30T21:08:25.250Z,6.80
2022-07-30T21:10:53.723Z,7.15
2022-07-30T21:13:24.958Z,6.38
2022-07-30T21:16:02.287Z,7.80
2022-07-30T21:18:32.863Z,8.27
2022-07-30T21:21:04.943Z,6.25
2022-07-30T21:23:33.574Z,9.27
2022-07-30T21:26:04.954Z,7.65
2022-07-30T21:28:36.017Z,10.88
2022-07-30T21:31:06.773Z,11.25
2022-07-30T21:33:38.513Z,12.48
2022-07-30T21:36:10.857Z,9.02
2022-07-30T21:38:42.714Z,8.35
2022-07-30T21:41:14.158Z,7.20
2022-07-30T21:43:44.420Z,8.82
2022-07-30T21:46:13.422Z,10.98
2022-07-30T21:48:45.474Z,11.15
2022-07-30T21:51:13.885Z,14.77
2022-07-30T21:53:45.180Z,10.23
2022-07-30T21:56:14.916Z,12.98
2022-07-30T21:58:44.207Z,10.05
2022-07-30T22:01:17.745Z,8.38
2022-07-30T22:04:03.604Z,9.13
2022-07-30T22:06:39.784Z,8.75
2022-07-30T22:09:19.307Z,10.20
2022-07-30T22:11:57.273Z,7.50
2022-07-30T22:14:31.491Z,8.65
2022-07-30T22:17:00.693Z,8.65
2022-07-30T22:19:38.978Z,11.18
2022-07-30T22:22:26.726Z,8.57
2022-07-30T22:27:56.530Z,10.73
2022-07-30T22:30:27.577Z,9.18
2022-07-30T22:33:08.339Z,9.45
2022-07-30T22:35:37.570Z,9.73
2022-07-30T22:38:08.687Z,8.82
2022-07-30T22:40:37.909Z,11.63
2022-07-30T22:43:09.952Z,15.88
2022-07-30T22:45:48.882Z,9.85
2022-07-30T22:48:19.911Z,9.57
2022-07-30T22:50:53.901Z,10.32
2022-07-30T22:54:10.841Z,9.73
2022-07-30T22:56:15.704Z,11.20
2022-07-30T22:58:44.902Z,10.65
2022-07-30T23:01:17.257Z,11.13
2022-07-30T23:03:48.143Z,10.43
2022-07-30T23:06:17.397Z,9.40
2022-07-30T23:08:49.201Z,10.45
2022-07-30T23:11:19.461Z,9.45
2022-07-30T23:12:28.740Z,8.98
2022-07-30T23:13:48.776Z,11.48
2022-07-30T23:16:16.717Z,11.63
2022-07-30T23:18:44.580Z,9.80
2022-07-30T23:21:12.386Z,10.95
2022-07-30T23:23:40.690Z,10.93
2022-07-30T23:26:08.895Z,9.95
2022-07-30T23:28:37.030Z,14.38
2022-07-30T23:31:05.987Z,10.02
2022-07-30T23:33:33.620Z,9.27
2022-07-30T23:36:01.324Z,9.93
2022-07-30T23:38:28.999Z,10.07
2022-07-30T23:41:01.304Z,12.63
2022-07-30T23:43:29.154Z,9.25
2022-07-30T23:45:57.162Z,9.43
2022-07-30T23:48:24.866Z,8.18
2022-07-30T23:50:52.898Z,12.90
2022-07-30T23:53:21.080Z,11.35
2022-07-30T23:55:50.060Z,9.02
2022-07-30T23:58:18.205Z,12.80
